KOCH/OCH METAR and TAF weather

Enter ICAO airport designator
Station Type Date Time Source
KOCH METAR 2019/04/19 09:56 UTC NOAA

KOCH 190956Z AUTO 31006KT 10SM FEW080 11/08 A2988 RMK AO2 SLP122 T01060083


Station Type Date Time Source
KOCH Decoded METAR 2019/04/19 09:56 UTC NOAA

Nacogdoches, A L Mangham Jr. Regional Airport, TX, United States (KOCH) 31-35N 094-43W
Apr 19, 2019 - 05:56 AM EDT / 2019.04.19 0956 UTC
Wind: from the NW (310 degrees) at 7 MPH (6 KT):0
Visibility: 10 mile(s):0
Sky conditions: mostly clear
Temperature: 51.1 F (10.6 C)
Dew Point: 46.9 F (8.3 C)
Relative Humidity: 85%
Pressure (altimeter): 29.88 in. Hg (1011 hPa)
ob: KOCH 190956Z AUTO 31006KT 10SM FEW080 11/08 A2988 RMK AO2 SLP122 T01060083
cycle: 10

Station Type Date Time Source
KOCH TAF UTC NOAA

Error!

Example: see airport list